Portland, OR (97229)

8:43 AM PST on February 28, 2015 (GMT -0800)
Oak meadows | Change Station
CLOSE
Current Station
Personal Weather Station
Location: Portland, OR
Elevation: 266 ft
Nearby Weather Stations

Elev 266 ft 45.55 °N, 122.83 °W | Updated 7 minutes ago

Clear
Clear
41.5 °F
Feels Like 42 °F
N
2.7
Wind Variable Wind from West

Today
High -- | Low -- °F
--% Chance of Precip.
Yesterday
High -- | Low -- °F
Precip. -- in
6:51 AM 5:56 PM
Waxing Gibbous, 78% visible
Pressure 30.06 in
Visibility 7.0 miles
Clouds Clear
Windchill 42 °F
Dew Point 40 °F
Humidity 96%
Rainfall 0.00 in
Snow Depth Not available.
UV 0 out of 12
Pollen 4.30 out of 12
Air Quality Not available.
Flu Activity Not available.
METAR KHIO 281553Z 03003KT 7SM CLR 03/02 A3006 RMK AO2 SLP179 T00330022

More Conditions Fewer Conditions

Pressure 30.06 in
Visibility 7.0 miles
Clouds Clear
Windchill 42 °F
Dew Point 40 °F
Humidity 96%
Rainfall 0.00 in
Snow Depth Not available.
UV 0 out of 12
Pollen 4.30 out of 12
Air Quality Not available.
Flu Activity Not available.
METAR KHIO 281553Z 03003KT 7SM CLR 03/02 A3006 RMK AO2 SLP179 T00330022

More Conditions Fewer Conditions

10-Day Weather Forecast

Almanac

Astronomy

Feb. 28, 2015 Rise Set
Actual Time
Civil Twilight
Nautical Twilight
Astronomical Twilight
Moon
Length of Visible Light
Length of Day
Tomorrow will be .
, % of the Moon is Illuminated

Today's Extremes

State Highs State Lows

Community

WunderPhotos

Upload Photos

1,801,081 photos uploaded!

WunderBlogs® & News

Nearby

Air Quality

  Air Quality AQ Index Pollutant
Not available.

Snow Depth

Station Depth Elevation

Earthquake Activity

City Distance Mag. Time & Date
Minimum magnitude displayed is 2.5.

Coastal Water Temperatures

Place Temperature

Nearby Weather Stations